Time;durP1;ratioP1;P1;durP2;ratioP2;P2;SDS_P1;SDS_P2;PMS_P1;PMS_P2;Temp;Humidity;BMP_temperature;BMP_pressure;BME280_temperature;BME280_humidity;BME280_pressure;Samples;Min_cycle;Max_cycle;Signal;HPM_P1;HPM_P2
2023/10/20 11:21:43;;;;;;;35.58;12.85;;;;;;;;;;5070769;28;20444;-80
2023/10/20 11:24:09;;;;;;;39.57;16.23;;;;;;;;;;5071369;28;20052;-81
2023/10/20 11:28:31;;;;;;;37.83;15.25;;;;;;;;;;5091199;27;20382;-80
2023/10/20 11:30:57;;;;;;;47.92;15.73;;;;;;;;;;5091606;28;20119;-80
2023/10/20 11:33:24;;;;;;;44.80;13.25;;;;;;;;;;5091435;28;20026;-80
2023/10/20 11:35:52;;;;;;;30.23;11.88;;;;;;;;;;5091087;28;20039;-78
2023/10/20 11:39:24;;;;;;;32.65;13.05;;;;;;;;;;5091426;28;20389;-78
2023/10/20 11:41:51;;;;;;;32.88;12.32;;;;;;;;;;5091489;28;20078;-78
2023/10/20 11:44:17;;;;;;;25.23;11.35;;;;;;;;;;5091052;28;20027;-77
2023/10/20 11:46:43;;;;;;;35.05;12.50;;;;;;;;;;5091516;28;20012;-78
2023/10/20 11:49:10;;;;;;;41.25;12.23;;;;;;;;;;5091130;28;20020;-78
2023/10/20 11:53:12;;;;;;;27.95;11.65;;;;;;;;;;5070968;28;20399;-78
2023/10/20 11:57:18;;;;;;;34.95;11.15;;;;;;;;;;5090805;27;20389;-77
2023/10/20 11:59:44;;;;;;;33.03;11.85;;;;;;;;;;5091515;28;20024;-76
2023/10/20 12:03:48;;;;;;;31.88;10.95;;;;;;;;;;5090538;27;20366;-76
2023/10/20 12:08:38;;;;;;;31.85;11.90;;;;;;;;;;5091346;28;20885;-79
2023/10/20 12:11:04;;;;;;;36.83;12.85;;;;;;;;;;5091099;28;20483;-79
2023/10/20 12:13:30;;;;;;;34.47;13.40;;;;;;;;;;5091385;28;20013;-80
2023/10/20 12:15:56;;;;;;;35.00;12.02;;;;;;;;;;5091117;28;20027;-78
2023/10/20 12:18:22;;;;;;;29.30;11.02;;;;;;;;;;5090665;28;20028;-79
2023/10/20 12:45:11;;;;;;;27.38;10.40;;;;;;;;;;5070642;28;20939;-76
2023/10/20 12:47:37;;;;;;;30.40;11.32;;;;;;;;;;5069977;28;20020;-79
2023/10/20 12:50:06;;;;;;;39.38;11.45;;;;;;;;;;5069909;28;20013;-77
2023/10/20 12:52:32;;;;;;;39.25;10.98;;;;;;;;;;5070876;28;20017;-78
2023/10/20 13:01:46;;;;;;;41.28;12.35;;;;;;;;;;5091317;27;20394;-78
2023/10/20 13:04:13;;;;;;;33.95;11.02;;;;;;;;;;5091451;28;20463;-78
2023/10/20 13:06:40;;;;;;;32.05;9.88;;;;;;;;;;5090857;28;20020;-79
2023/10/20 13:10:14;;;;;;;29.52;11.88;;;;;;;;;;5071153;28;20727;-77
2023/10/20 13:12:41;;;;;;;34.15;11.77;;;;;;;;;;5069721;28;20128;-79
2023/10/20 13:15:09;;;;;;;28.20;9.15;;;;;;;;;;5071202;28;20019;-79
2023/10/20 13:17:36;;;;;;;19.38;8.52;;;;;;;;;;5071326;28;20455;-76
2023/10/20 13:20:03;;;;;;;27.77;9.75;;;;;;;;;;5070775;28;20025;-78
2023/10/20 13:22:30;;;;;;;25.40;9.68;;;;;;;;;;5069772;28;20024;-78
2023/10/20 13:24:56;;;;;;;29.00;10.38;;;;;;;;;;5070748;28;20358;-79
2023/10/20 13:27:22;;;;;;;21.55;9.35;;;;;;;;;;5069375;28;20362;-79
2023/10/20 13:29:48;;;;;;;26.98;8.77;;;;;;;;;;5069750;28;20340;-79
2023/10/20 13:32:14;;;;;;;25.25;10.40;;;;;;;;;;5071097;28;20450;-79
2023/10/20 13:34:41;;;;;;;23.00;10.15;;;;;;;;;;5069240;28;20020;-80
2023/10/20 13:37:07;;;;;;;28.17;10.60;;;;;;;;;;5070750;28;20103;-79
2023/10/20 13:39:33;;;;;;;26.48;11.98;;;;;;;;;;5070745;28;20025;-79
2023/10/20 13:42:02;;;;;;;34.45;10.68;;;;;;;;;;5068970;28;20112;-79
2023/10/20 13:44:28;;;;;;;27.92;10.77;;;;;;;;;;5069353;28;20470;-80
2023/10/20 13:46:54;;;;;;;28.35;9.25;;;;;;;;;;5069277;28;20024;-79
2023/10/20 13:49:20;;;;;;;32.80;11.13;;;;;;;;;;5069851;28;20024;-79
2023/10/20 13:51:47;;;;;;;39.35;10.68;;;;;;;;;;5069412;28;20060;-81
2023/10/20 13:54:13;;;;;;;22.30;9.60;;;;;;;;;;5070475;28;20017;-80
2023/10/20 13:56:39;;;;;;;30.58;10.48;;;;;;;;;;5069840;28;20021;-79
2023/10/20 13:59:05;;;;;;;33.42;10.38;;;;;;;;;;5070058;28;20027;-80
2023/10/20 14:01:31;;;;;;;33.90;9.38;;;;;;;;;;5069951;28;20020;-80
2023/10/20 14:03:58;;;;;;;23.92;8.88;;;;;;;;;;5070009;28;20039;-80
2023/10/20 14:06:24;;;;;;;29.80;11.45;;;;;;;;;;5068897;28;20028;-80
2023/10/20 14:08:50;;;;;;;29.63;11.10;;;;;;;;;;5068171;28;20044;-80
2023/10/20 14:11:18;;;;;;;30.65;11.30;;;;;;;;;;5070340;28;20049;-80
2023/10/20 14:13:47;;;;;;;30.55;10.05;;;;;;;;;;5070030;28;20063;-79
2023/10/20 14:16:13;;;;;;;21.38;10.30;;;;;;;;;;5068367;28;20048;-80
2023/10/20 14:18:39;;;;;;;24.58;9.98;;;;;;;;;;5069892;28;20470;-80
2023/10/20 14:21:08;;;;;;;28.35;9.38;;;;;;;;;;5058009;28;20031;-80
2023/10/20 14:23:35;;;;;;;24.35;9.75;;;;;;;;;;5056548;28;20475;-80
2023/10/20 14:26:01;;;;;;;30.05;11.15;;;;;;;;;;5056564;28;20085;-80
2023/10/20 14:28:31;;;;;;;28.13;10.73;;;;;;;;;;5055193;28;20025;-81
2023/10/20 17:00:05;;;;;;;54.17;18.20;;;22.50;56.40;;;;;;5128002;27;20330;-81
2023/10/20 17:02:31;;;;;;;50.35;20.35;;;22.10;57.30;;;;;;5084923;28;20028;-82
2023/10/20 17:04:57;;;;;;;41.90;16.48;;;22.00;57.50;;;;;;5092786;28;20034;-82
2023/10/20 17:07:22;;;;;;;52.05;15.32;;;22.10;57.60;;;;;;5111080;28;20020;-82
2023/10/20 17:09:48;;;;;;;60.50;28.70;;;22.20;58.30;;;;;;5111631;28;20032;-82
2023/10/20 17:12:14;;;;;;;77.47;31.02;;;22.20;58.00;;;;;;5109716;28;20421;-82
2023/10/20 17:14:39;;;;;;;57.42;22.88;;;22.30;58.10;;;;;;5110575;28;20355;-81
2023/10/20 17:17:05;;;;;;;80.72;33.92;;;22.30;58.20;;;;;;5111105;28;20442;-81
2023/10/20 17:19:32;;;;;;;65.75;29.17;;;22.30;58.70;;;;;;5092499;28;20397;-81
2023/10/20 17:21:58;;;;;;;63.42;21.20;;;22.30;58.70;;;;;;5111164;28;20024;-82
2023/10/20 17:24:25;;;;;;;56.50;18.98;;;22.30;58.80;;;;;;5111048;28;20024;-81
2023/10/20 17:26:51;;;;;;;39.30;14.85;;;22.30;58.80;;;;;;5110894;28;20054;-82
2023/10/20 17:29:16;;;;;;;39.50;12.93;;;22.50;58.10;;;;;;5110959;28;20071;-81
2023/10/20 17:31:42;;;;;;;28.65;15.57;;;22.60;57.90;;;;;;5110078;28;20106;-80
2023/10/20 17:34:08;;;;;;;30.92;9.35;;;22.70;57.70;;;;;;5110202;28;20032;-80
2023/10/20 17:36:34;;;;;;;29.17;9.82;;;22.80;57.30;;;;;;5109902;28;20035;-81
2023/10/20 17:39:02;;;;;;;25.67;8.70;;;22.90;57.10;;;;;;5109759;28;20027;-82
2023/10/20 17:41:27;;;;;;;25.65;8.18;;;23.00;56.60;;;;;;5092061;28;20110;-82
2023/10/20 17:43:55;;;;;;;25.75;7.38;;;23.20;56.50;;;;;;5109981;28;20505;-81
2023/10/20 17:46:22;;;;;;;31.00;8.40;;;23.20;56.20;;;;;;5109333;28;20038;-81
2023/10/20 17:48:48;;;;;;;30.30;7.55;;;23.30;56.10;;;;;;5109895;28;20107;-81
2023/10/20 17:51:14;;;;;;;24.42;9.48;;;23.50;55.70;;;;;;5109556;28;20020;-80
2023/10/20 17:53:40;;;;;;;23.05;7.43;;;;;;;;;;5091365;28;20027;-82
2023/10/20 17:56:50;;;;;;;26.77;7.63;;;;;;;;;;5103366;27;20333;-80
2023/10/20 17:59:16;;;;;;;34.28;8.55;;;;;;;;;;5098646;28;20047;-80
2023/10/20 18:01:43;;;;;;;22.77;8.32;;;;;;;;;;5103678;28;20365;-79
2023/10/20 18:04:09;;;;;;;28.17;8.15;;;;;;;;;;5102836;28;20017;-80
2023/10/20 18:06:35;;;;;;;23.25;7.43;;;;;;;;;;5100302;28;20023;-78
2023/10/20 18:09:01;;;;;;;26.60;7.85;;;;;;;;;;5093476;28;20021;-82
2023/10/20 18:11:27;;;;;;;20.67;7.53;;;;;;;;;;5089563;28;20020;-82
2023/10/20 18:13:55;;;;;;;22.85;8.15;;;23.50;55.40;;;;;;5100431;28;20065;-80
2023/10/20 18:16:21;;;;;;;18.92;7.43;;;23.40;56.20;;;;;;5107714;28;20461;-81
2023/10/20 18:18:51;;;;;;;23.38;9.15;;;23.30;56.60;;;;;;5098679;28;20072;-80
2023/10/20 18:21:18;;;;;;;28.70;9.50;;;23.10;57.00;;;;;;5093801;28;20017;-82
2023/10/20 18:23:44;;;;;;;25.70;9.35;;;23.10;57.40;;;;;;5089460;28;20158;-83
2023/10/20 18:26:10;;;;;;;38.50;8.48;;;23.00;57.60;;;;;;5103925;28;20028;-81
2023/10/20 18:28:36;;;;;;;27.98;9.40;;;22.90;57.90;;;;;;5108841;28;20020;-81
2023/10/20 18:31:14;;;;;;;26.42;9.63;;;22.80;58.50;;;;;;5102159;28;20027;-82
2023/10/20 18:33:41;;;;;;;27.30;8.88;;;22.70;58.50;;;;;;5092494;28;20125;-82
2023/10/20 18:36:07;;;;;;;36.17;13.38;;;22.60;58.70;;;;;;5093682;28;20085;-81
2023/10/20 18:38:33;;;;;;;35.92;12.00;;;22.60;59.20;;;;;;5090182;28;20028;-82
2023/10/20 18:40:59;;;;;;;36.83;9.85;;;22.50;59.20;;;;;;5095666;28;20028;-81
2023/10/20 18:43:24;;;;;;;25.13;8.27;;;22.60;59.70;;;;;;5100140;28;20051;-81
2023/10/20 18:45:54;;;;;;;23.88;7.40;;;22.70;59.00;;;;;;5105642;28;20036;-82
2023/10/20 18:48:20;;;;;;;20.90;7.95;;;22.70;58.90;;;;;;5090192;28;20404;-81
2023/10/20 18:50:45;;;;;;;29.15;7.50;;;22.80;58.90;;;;;;5083725;28;20461;-80
2023/10/20 18:53:11;;;;;;;24.83;7.72;;;22.80;58.70;;;;;;5089779;28;20036;-81
2023/10/20 18:55:37;;;;;;;17.35;6.93;;;22.80;58.60;;;;;;5086769;28;20533;-81
2023/10/20 18:58:03;;;;;;;19.90;6.82;;;22.80;58.80;;;;;;5071857;28;20366;-80
2023/10/20 19:00:31;;;;;;;14.27;5.97;;;22.80;58.80;;;;;;5071749;28;20048;-81
2023/10/20 19:02:57;;;;;;;27.20;6.28;;;22.80;58.90;;;;;;5093829;28;20465;-82
2023/10/20 19:05:23;;;;;;;29.50;6.72;;;22.80;58.90;;;;;;5078004;28;20025;-82
2023/10/20 19:07:49;;;;;;;23.63;6.68;;;22.80;59.00;;;;;;5092375;28;20477;-80
2023/10/20 19:10:16;;;;;;;21.05;6.22;;;22.70;59.20;;;;;;5077809;28;20024;-80
2023/10/20 19:12:43;;;;;;;26.40;7.00;;;22.70;59.40;;;;;;5096235;28;20023;-81
2023/10/20 19:15:09;;;;;;;22.00;8.57;;;22.70;59.50;;;;;;5078328;28;20403;-81
2023/10/20 19:17:36;;;;;;;22.17;7.05;;;22.60;59.70;;;;;;5096141;28;20111;-80
2023/10/20 19:20:03;;;;;;;14.10;6.10;;;22.60;59.70;;;;;;5096438;28;20020;-82
2023/10/20 19:22:29;;;;;;;18.48;7.43;;;22.50;59.90;;;;;;5074872;28;20032;-82
2023/10/20 19:24:55;;;;;;;28.23;7.50;;;22.50;60.00;;;;;;5057767;28;20028;-82
2023/10/20 19:27:21;;;;;;;26.80;6.70;;;22.50;60.00;;;;;;5058132;28;20521;-82
2023/10/20 19:29:47;;;;;;;15.40;6.30;;;22.50;60.00;;;;;;5076260;28;20031;-82
2023/10/20 19:32:13;;;;;;;20.25;6.15;;;22.50;60.30;;;;;;5057581;28;20115;-82
2023/10/20 19:34:39;;;;;;;18.77;6.07;;;22.50;60.40;;;;;;5075773;28;20477;-82
2023/10/20 19:37:05;;;;;;;19.52;5.70;;;22.40;60.50;;;;;;5075500;28;20028;-83
2023/10/20 19:39:33;;;;;;;26.13;6.15;;;22.40;60.70;;;;;;5075700;28;20017;-83
2023/10/20 19:41:59;;;;;;;24.92;6.47;;;22.30;60.80;;;;;;5058312;28;20020;-83
2023/10/20 19:44:27;;;;;;;20.23;7.45;;;22.30;61.40;;;;;;5086108;28;20026;-82
2023/10/20 19:46:53;;;;;;;19.52;7.40;;;22.20;61.80;;;;;;5076373;28;20028;-83
2023/10/20 19:49:19;;;;;;;24.13;8.18;;;22.00;62.10;;;;;;5062112;28;20365;-82
2023/10/20 19:51:45;;;;;;;22.85;8.63;;;22.00;62.50;;;;;;5089417;28;20030;-83
2023/10/20 19:54:11;;;;;;;23.98;9.27;;;21.90;63.00;;;;;;5059585;28;20097;-80
2023/10/20 19:56:37;;;;;;;19.80;7.47;;;21.90;63.20;;;;;;5093007;28;20454;-81
2023/10/20 19:59:03;;;;;;;27.63;7.40;;;21.80;63.50;;;;;;5077847;28;20031;-80
2023/10/20 20:01:29;;;;;;;24.58;8.05;;;21.70;63.80;;;;;;5100990;28;20148;-80
2023/10/20 20:03:54;;;;;;;38.08;11.38;;;21.70;64.20;;;;;;5075727;28;20103;-79
2023/10/20 20:06:20;;;;;;;23.25;8.07;;;21.60;64.30;;;;;;5081106;28;20457;-81
2023/10/20 20:08:46;;;;;;;35.40;8.73;;;21.60;64.60;;;;;;5094996;28;20031;-79
2023/10/20 20:11:13;;;;;;;19.52;6.38;;;21.50;64.70;;;;;;5077539;28;20020;-79
2023/10/20 20:13:39;;;;;;;25.55;5.45;;;21.50;64.60;;;;;;5109392;28;20464;-81
2023/10/20 20:16:10;;;;;;;24.92;6.43;;;21.60;64.60;;;;;;5089114;28;20032;-80
2023/10/20 20:18:39;;;;;;;34.40;5.93;;;21.70;64.50;;;;;;5093882;28;20359;-81
2023/10/20 20:21:08;;;;;;;13.30;5.10;;;21.60;64.50;;;;;;5083338;28;20073;-82
2023/10/20 20:23:34;;;;;;;18.10;4.95;;;21.70;64.20;;;;;;5093905;28;20051;-80
2023/10/20 20:26:00;;;;;;;18.10;5.28;;;21.80;64.30;;;;;;5100526;28;20692;-78
2023/10/20 20:28:26;;;;;;;21.30;5.40;;;21.90;64.00;;;;;;5087995;28;20020;-80
2023/10/20 20:30:53;;;;;;;20.35;5.35;;;21.90;63.60;;;;;;5081303;28;20020;-81
2023/10/20 20:33:19;;;;;;;16.98;5.03;;;22.00;63.20;;;;;;5094622;28;20020;-81
2023/10/20 20:35:46;;;;;;;15.90;5.20;;;;;;;;;;5088481;28;20040;-80
2023/10/20 20:38:12;;;;;;;26.02;6.13;;;22.20;61.80;;;;;;5088444;28;20111;-81
2023/10/20 20:40:37;;;;;;;20.75;5.43;;;22.30;62.00;;;;;;5074386;28;20056;-82
2023/10/20 20:43:04;;;;;;;21.73;5.57;;;22.30;61.70;;;;;;5074316;28;20059;-83
2023/10/20 20:45:31;;;;;;;14.98;5.88;;;22.40;61.40;;;;;;5074571;28;20112;-81
2023/10/20 20:47:58;;;;;;;24.20;7.10;;;22.40;61.40;;;;;;5083186;28;20024;-83
2023/10/20 20:50:24;;;;;;;18.60;6.22;;;22.30;61.70;;;;;;5080521;28;20027;-81
2023/10/20 20:52:50;;;;;;;25.60;6.35;;;22.30;61.80;;;;;;5078629;28;20028;-81
2023/10/20 20:55:16;;;;;;;14.25;4.97;;;22.20;62.10;;;;;;5087320;28;20359;-81
2023/10/20 20:57:42;;;;;;;14.52;4.45;;;22.10;62.50;;;;;;5065943;28;20105;-81
2023/10/20 21:00:09;;;;;;;19.52;4.70;;;22.20;61.90;;;;;;5074355;28;20092;-80
2023/10/20 21:02:36;;;;;;;17.90;5.43;;;22.30;61.60;;;;;;5056007;28;20036;-81
2023/10/20 21:05:02;;;;;;;21.08;5.35;;;22.30;61.70;;;;;;5085294;28;20028;-80
2023/10/20 21:07:28;;;;;;;19.48;5.15;;;22.30;61.60;;;;;;5093879;28;20382;-81
2023/10/20 21:09:54;;;;;;;19.70;5.97;;;22.20;61.70;;;;;;5075726;28;20024;-83
2023/10/20 21:12:20;;;;;;;25.88;6.05;;;22.20;62.10;;;;;;5076071;28;20024;-82
2023/10/20 21:14:46;;;;;;;21.30;7.10;;;22.00;62.50;;;;;;5094072;28;20027;-79
2023/10/20 21:17:11;;;;;;;21.40;6.72;;;21.90;63.00;;;;;;5075900;28;20111;-80
2023/10/20 21:19:37;;;;;;;20.33;6.28;;;21.90;63.00;;;;;;5079740;28;20028;-82
2023/10/20 21:22:03;;;;;;;18.98;6.00;;;21.90;63.30;;;;;;5094045;28;20082;-82
2023/10/20 21:24:29;;;;;;;19.23;5.78;;;21.80;63.60;;;;;;5080492;28;20143;-81
2023/10/20 21:26:55;;;;;;;19.65;5.00;;;21.70;63.40;;;;;;5069973;28;20020;-83
2023/10/20 21:29:22;;;;;;;27.52;6.45;;;21.90;62.90;;;;;;5070795;28;20016;-82
2023/10/20 21:31:48;;;;;;;26.63;6.30;;;21.90;62.90;;;;;;5105299;28;20374;-82
2023/10/20 21:34:14;;;;;;;15.70;5.60;;;21.90;63.20;;;;;;5075563;28;20028;-81
2023/10/20 21:36:40;;;;;;;22.00;6.10;;;21.80;63.50;;;;;;5098757;28;20036;-82
2023/10/20 21:39:09;;;;;;;18.17;6.03;;;21.80;63.30;;;;;;5093491;28;20039;-82
2023/10/20 21:41:36;;;;;;;28.33;7.35;;;21.80;63.60;;;;;;5107545;28;20071;-81
2023/10/20 21:44:04;;;;;;;24.17;6.68;;;21.70;63.80;;;;;;5097362;28;20020;-81
2023/10/20 21:46:34;;;;;;;24.02;5.95;;;21.70;63.90;;;;;;5094155;28;20604;-82
2023/10/20 21:49:00;;;;;;;23.10;5.93;;;21.60;64.20;;;;;;5075182;28;20028;-81
2023/10/20 21:51:26;;;;;;;24.95;6.28;;;21.50;64.70;;;;;;5071543;28;20021;-80
2023/10/20 21:53:53;;;;;;;28.85;7.15;;;21.70;63.80;;;;;;5071413;28;20036;-83
2023/10/20 21:56:19;;;;;;;27.73;5.65;;;21.90;63.10;;;;;;5094671;28;20043;-80
2023/10/20 21:58:44;;;;;;;24.40;7.30;;;22.10;62.70;;;;;;5099215;28;20049;-81
2023/10/20 22:01:11;;;;;;;20.85;6.15;;;22.30;62.10;;;;;;5075100;28;20032;-81
2023/10/20 22:03:39;;;;;;;22.88;5.97;;;22.50;61.60;;;;;;5083193;28;20020;-83
2023/10/20 22:06:06;;;;;;;17.92;6.00;;;22.50;60.70;;;;;;5080434;28;20470;-81
2023/10/20 22:08:32;;;;;;;28.13;6.00;;;22.50;61.10;;;;;;5056853;28;20090;-81
2023/10/20 22:10:58;;;;;;;18.13;6.05;;;22.50;61.10;;;;;;5075437;28;20020;-81
2023/10/20 22:13:24;;;;;;;12.10;6.20;;;22.70;60.90;;;;;;5083061;28;20110;-83
2023/10/20 22:15:50;;;;;;;15.63;6.53;;;22.50;61.10;;;;;;5090185;28;20124;-82
2023/10/20 22:18:16;;;;;;;26.45;6.13;;;22.40;61.60;;;;;;5078716;28;20070;-81
2023/10/20 22:20:42;;;;;;;15.80;6.28;;;22.20;62.70;;;;;;5060928;28;20033;-81
2023/10/20 22:23:09;;;;;;;22.58;6.80;;;22.40;61.60;;;;;;5075192;28;20463;-80
2023/10/20 22:25:35;;;;;;;26.48;6.35;;;22.30;61.90;;;;;;5074864;28;20036;-80
2023/10/20 22:28:01;;;;;;;19.85;6.32;;;22.30;61.90;;;;;;5093349;28;20063;-82
2023/10/20 22:30:26;;;;;;;18.52;7.40;;;22.20;62.10;;;;;;5092614;28;20028;-81
2023/10/20 22:32:53;;;;;;;23.40;8.05;;;22.30;61.80;;;;;;5090179;28;20072;-80
2023/10/20 22:35:19;;;;;;;16.35;6.90;;;22.30;62.20;;;;;;5072930;28;20029;-82
2023/10/20 22:37:46;;;;;;;21.27;5.75;;;22.30;62.20;;;;;;5055062;28;20052;-81
2023/10/20 22:40:12;;;;;;;25.35;5.80;;;22.50;61.40;;;;;;5072745;28;20020;-80
2023/10/20 22:42:38;;;;;;;25.60;5.60;;;22.50;61.30;;;;;;5075070;28;20025;-82
2023/10/20 22:45:04;;;;;;;26.35;6.50;;;22.60;61.30;;;;;;5058860;28;20470;-82
2023/10/20 22:47:30;;;;;;;19.73;5.32;;;22.50;61.90;;;;;;5058084;28;20040;-80
2023/10/20 22:49:56;;;;;;;28.52;6.28;;;22.40;62.10;;;;;;5058694;28;20024;-81
2023/10/20 22:52:22;;;;;;;15.82;5.80;;;22.40;62.10;;;;;;5076890;28;20016;-80
2023/10/20 22:54:48;;;;;;;20.80;6.57;;;22.30;62.30;;;;;;5076009;28;20044;-82
2023/10/20 22:57:13;;;;;;;24.88;6.50;;;22.20;62.50;;;;;;5077784;28;20151;-79
2023/10/20 22:59:40;;;;;;;25.48;6.63;;;22.20;62.80;;;;;;5096559;28;20062;-81
2023/10/20 23:02:05;;;;;;;27.70;7.20;;;22.10;62.90;;;;;;5078524;28;20051;-81
2023/10/20 23:04:32;;;;;;;20.88;7.18;;;22.10;63.10;;;;;;5096915;28;20455;-82
2023/10/20 23:06:57;;;;;;;25.77;6.82;;;22.10;63.30;;;;;;5080696;28;20016;-82
2023/10/20 23:09:23;;;;;;;17.73;6.03;;;22.00;63.60;;;;;;5092004;28;20060;-81
2023/10/20 23:11:49;;;;;;;23.55;6.50;;;22.00;64.00;;;;;;5076659;28;20028;-81
2023/10/20 23:14:15;;;;;;;28.58;6.90;;;21.90;63.80;;;;;;5080574;28;20032;-80
2023/10/20 23:16:42;;;;;;;26.63;7.10;;;22.00;63.90;;;;;;5091483;28;20466;-79
2023/10/20 23:19:08;;;;;;;22.77;7.03;;;21.90;63.90;;;;;;5083685;28;20421;-79
2023/10/20 23:21:34;;;;;;;17.20;5.80;;;21.90;64.00;;;;;;5075433;28;20031;-81
2023/10/20 23:24:00;;;;;;;26.27;6.50;;;22.00;64.00;;;;;;5058270;28;20025;-80
2023/10/20 23:26:26;;;;;;;24.70;6.82;;;22.00;64.00;;;;;;5057686;28;20123;-81
2023/10/20 23:28:52;;;;;;;27.38;7.97;;;22.00;64.00;;;;;;5057839;28;20366;-82
2023/10/20 23:31:18;;;;;;;26.48;7.13;;;22.10;63.80;;;;;;5060055;28;20049;-81
2023/10/20 23:33:44;;;;;;;19.58;7.00;;;22.10;63.70;;;;;;5059667;28;20029;-80
2023/10/20 23:36:10;;;;;;;18.10;6.63;;;22.20;63.40;;;;;;5057616;28;20089;-81
2023/10/20 23:38:35;;;;;;;21.23;6.97;;;22.30;63.30;;;;;;5075779;28;20036;-81
2023/10/20 23:41:01;;;;;;;23.33;6.85;;;22.30;62.90;;;;;;5058079;28;20474;-81
2023/10/20 23:43:27;;;;;;;14.82;5.70;;;22.40;62.90;;;;;;5057385;28;20025;-81
2023/10/20 23:45:56;;;;;;;22.27;5.70;;;22.50;62.60;;;;;;5057985;28;20052;-82
2023/10/20 23:48:21;;;;;;;20.63;5.38;;;22.50;62.70;;;;;;5057868;28;20016;-82
2023/10/20 23:50:48;;;;;;;14.02;5.57;;;;;;;;;;5057569;28;20028;-82
2023/10/20 23:53:13;;;;;;;20.45;5.20;;;22.60;61.70;;;;;;5057661;28;20023;-81
2023/10/20 23:55:39;;;;;;;18.73;6.05;;;22.60;62.90;;;;;;5075216;28;20044;-82
2023/10/20 23:58:05;;;;;;;18.08;5.90;;;22.60;62.00;;;;;;5065865;28;20050;-82
